createdAt,value
2023-03-30T00:04:59.054Z,0
2023-03-30T00:09:58.946Z,0
2023-03-30T00:14:59.002Z,0
2023-03-30T00:19:59.396Z,0
2023-03-30T00:24:59.071Z,0
2023-03-30T00:29:59.140Z,0
2023-03-30T00:34:59.214Z,0
2023-03-30T00:39:58.704Z,0
2023-03-30T00:44:58.637Z,0
2023-03-30T00:49:58.802Z,0
2023-03-30T00:54:58.719Z,0
2023-03-30T00:59:58.554Z,0
2023-03-30T01:04:58.804Z,0
2023-03-30T01:09:58.523Z,0
2023-03-30T01:14:58.720Z,0
2023-03-30T01:19:58.724Z,0
2023-03-30T01:24:58.556Z,0
2023-03-30T01:29:58.518Z,0
2023-03-30T01:35:07.910Z,0
2023-03-30T01:39:58.815Z,0
2023-03-30T01:45:00.904Z,0
2023-03-30T01:50:00.750Z,0
2023-03-30T01:54:58.704Z,0
2023-03-30T01:59:58.513Z,0
2023-03-30T02:04:58.607Z,0
2023-03-30T02:09:58.626Z,0
2023-03-30T02:14:58.763Z,0
2023-03-30T02:19:58.512Z,0
2023-03-30T02:24:58.701Z,0
2023-03-30T02:29:58.789Z,0
2023-03-30T02:34:58.436Z,0
2023-03-30T02:40:08.278Z,0
2023-03-30T02:44:58.388Z,0
2023-03-30T02:49:58.639Z,0
2023-03-30T02:55:03.345Z,0
2023-03-30T02:59:58.476Z,0
2023-03-30T03:04:58.551Z,0
2023-03-30T03:09:58.532Z,0
2023-03-30T03:14:58.616Z,0
2023-03-30T03:19:58.443Z,0
2023-03-30T03:24:58.535Z,0
2023-03-30T03:29:58.521Z,0
2023-03-30T03:34:58.584Z,0
2023-03-30T03:39:58.681Z,0
2023-03-30T03:44:58.576Z,0
2023-03-30T03:49:58.688Z,0
2023-03-30T03:54:58.573Z,0
2023-03-30T03:59:58.642Z,0
2023-03-30T04:04:58.512Z,0
2023-03-30T04:09:58.515Z,0
2023-03-30T04:14:58.493Z,0
2023-03-30T04:19:58.699Z,0
2023-03-30T04:24:58.557Z,0
2023-03-30T04:29:58.328Z,0
2023-03-30T04:34:58.516Z,0
2023-03-30T04:39:58.313Z,0
2023-03-30T04:44:58.559Z,0
2023-03-30T04:49:58.668Z,0
2023-03-30T04:54:58.401Z,0
2023-03-30T04:59:58.469Z,0
2023-03-30T05:04:58.601Z,0
2023-03-30T05:09:58.446Z,0
2023-03-30T05:14:58.696Z,0
2023-03-30T05:19:58.589Z,0
2023-03-30T05:24:58.472Z,0.5
2023-03-30T05:29:58.525Z,1.5
2023-03-30T05:34:58.797Z,2.6
2023-03-30T05:39:58.434Z,3.7
2023-03-30T05:44:58.257Z,5.4
2023-03-30T05:49:58.254Z,7
2023-03-30T05:54:58.731Z,8.4
2023-03-30T05:59:58.653Z,9.9
2023-03-30T06:04:58.653Z,11.4
2023-03-30T06:09:58.321Z,13
2023-03-30T06:14:58.242Z,15.6
2023-03-30T06:19:58.569Z,24.6
2023-03-30T06:24:58.193Z,27.5
2023-03-30T06:29:58.448Z,28.6
2023-03-30T06:34:58.244Z,29.9
2023-03-30T06:39:58.268Z,31.3
2023-03-30T06:44:58.280Z,30.3
2023-03-30T06:49:58.408Z,32.1
2023-03-30T06:54:58.457Z,28.3
2023-03-30T06:59:58.308Z,24.7
2023-03-30T07:04:58.188Z,27.4
2023-03-30T07:09:58.248Z,32.6
2023-03-30T07:14:58.675Z,33.7
2023-03-30T07:19:58.249Z,45.6
2023-03-30T07:24:58.502Z,38.8
2023-03-30T07:30:07.197Z,54.7
2023-03-30T07:34:58.450Z,55.4
2023-03-30T07:39:58.413Z,67.1
2023-03-30T07:44:58.097Z,92.8
2023-03-30T07:49:58.094Z,102.6
2023-03-30T07:54:58.464Z,106.1
2023-03-30T07:59:58.332Z,92.1
2023-03-30T08:04:58.478Z,106.8
2023-03-30T08:09:58.090Z,117.6
2023-03-30T08:14:58.572Z,110.1
2023-03-30T08:19:58.040Z,107.2
2023-03-30T08:24:58.438Z,99
2023-03-30T08:29:58.133Z,119.7
2023-03-30T08:34:58.300Z,125.9
2023-03-30T08:39:58.286Z,118.7
2023-03-30T08:44:58.368Z,106.7
2023-03-30T08:49:58.098Z,99.4
2023-03-30T08:54:58.629Z,83.4
2023-03-30T08:59:58.522Z,67.3
2023-03-30T09:04:58.346Z,78.9
2023-03-30T09:09:58.984Z,91.7
2023-03-30T09:14:58.189Z,102.6
2023-03-30T09:19:58.200Z,99
2023-03-30T09:24:58.397Z,108.2
2023-03-30T09:29:58.046Z,106.7
2023-03-30T09:34:58.384Z,97.8
2023-03-30T09:40:01.224Z,126
2023-03-30T09:44:58.193Z,126.2
2023-03-30T09:49:58.227Z,171.4
2023-03-30T09:54:58.198Z,193.4
2023-03-30T09:59:58.203Z,153.5
2023-03-30T10:04:58.319Z,144.4
2023-03-30T10:09:58.242Z,106.7
2023-03-30T10:14:58.174Z,168.1
2023-03-30T10:20:07.494Z,132.6
2023-03-30T10:24:58.265Z,130
2023-03-30T10:29:58.291Z,140.9
2023-03-30T10:34:58.237Z,197.4
2023-03-30T10:39:58.092Z,219.4
2023-03-30T10:44:58.020Z,192.2
2023-03-30T10:50:02.265Z,222.9
2023-03-30T10:55:01.208Z,233.9
2023-03-30T11:00:00.060Z,158.7
2023-03-30T11:04:58.278Z,140.9
2023-03-30T11:10:02.818Z,119.9
2023-03-30T11:14:58.127Z,158.7
2023-03-30T11:19:58.142Z,164.8
2023-03-30T11:24:58.204Z,215.3
2023-03-30T11:29:58.163Z,250.1
2023-03-30T11:34:58.067Z,237.7
2023-03-30T11:40:03.047Z,219.3
2023-03-30T11:44:58.101Z,213.7
2023-03-30T11:49:58.290Z,179.5
2023-03-30T11:55:25.332Z,200.8
2023-03-30T12:00:01.854Z,227.8
2023-03-30T12:05:02.426Z,171.8
2023-03-30T12:09:59.567Z,167.4
2023-03-30T12:14:57.921Z,167.4
2023-03-30T12:20:03.644Z,167.4
2023-03-30T12:25:00.313Z,254.8
2023-03-30T12:30:02.972Z,311.5
2023-03-30T12:34:58.336Z,394.2
2023-03-30T12:39:58.286Z,319.2
2023-03-30T12:44:58.176Z,260
2023-03-30T12:49:57.905Z,198.3
2023-03-30T12:54:58.210Z,151.3
2023-03-30T12:59:58.149Z,130.2
2023-03-30T13:04:58.325Z,124.2
2023-03-30T13:09:59.063Z,149.6
2023-03-30T13:14:58.166Z,183.2
2023-03-30T13:20:18.602Z,355.3
2023-03-30T13:24:57.939Z,425.6
2023-03-30T13:29:59.101Z,390.5
2023-03-30T13:35:06.228Z,259.9
2023-03-30T13:39:58.046Z,321.1
2023-03-30T13:44:58.172Z,519.2
2023-03-30T13:49:57.784Z,436.2
2023-03-30T13:54:57.802Z,438
2023-03-30T13:59:57.890Z,452.1
2023-03-30T14:05:10.273Z,392.4
2023-03-30T14:09:58.115Z,276.1
2023-03-30T14:14:58.087Z,402.1
2023-03-30T14:20:04.886Z,421.8
2023-03-30T14:24:57.780Z,388.6
2023-03-30T14:29:58.242Z,316
2023-03-30T14:34:57.872Z,274.1
2023-03-30T14:39:58.252Z,228
2023-03-30T14:44:58.081Z,204.1
2023-03-30T14:49:58.001Z,246
2023-03-30T14:55:06.109Z,220.5
2023-03-30T14:59:57.748Z,157.4
2023-03-30T15:04:57.962Z,149.6
2023-03-30T15:09:57.851Z,455.1
2023-03-30T15:14:57.880Z,342.1
2023-03-30T15:19:59.148Z,260.6
2023-03-30T15:24:57.940Z,280.1
2023-03-30T15:29:59.796Z,372.3
2023-03-30T15:34:57.736Z,363.8
2023-03-30T15:39:57.791Z,328.7
2023-03-30T15:44:57.803Z,395
2023-03-30T15:49:57.652Z,429.2
2023-03-30T15:54:57.838Z,357.4
2023-03-30T15:59:57.679Z,446.5
2023-03-30T16:04:59.484Z,476
2023-03-30T16:09:57.905Z,289.8
2023-03-30T16:14:57.680Z,349.3
2023-03-30T16:19:58.059Z,301.4
2023-03-30T16:24:57.951Z,242.7
2023-03-30T16:29:57.923Z,194.5
2023-03-30T16:34:57.939Z,146.5
2023-03-30T16:39:57.972Z,157.9
2023-03-30T16:44:58.054Z,181.5
2023-03-30T16:49:57.799Z,167.7
2023-03-30T16:54:58.013Z,98.6
2023-03-30T16:59:57.767Z,55.7
2023-03-30T17:04:58.036Z,41.6
2023-03-30T17:09:58.076Z,37.1
2023-03-30T17:14:57.746Z,31.5
2023-03-30T17:19:59.233Z,29.5
2023-03-30T17:24:57.694Z,26
2023-03-30T17:29:57.663Z,21.3
2023-03-30T17:34:57.898Z,18.1
2023-03-30T17:39:57.887Z,15.4
2023-03-30T17:44:57.918Z,13
2023-03-30T17:49:58.090Z,10.9
2023-03-30T17:54:57.581Z,8.4
2023-03-30T17:59:57.578Z,6.1
2023-03-30T18:04:57.797Z,4.1
2023-03-30T18:09:57.655Z,2.6
2023-03-30T18:14:57.744Z,1.4
2023-03-30T18:19:57.630Z,0.5
2023-03-30T18:24:57.646Z,0.2
2023-03-30T18:29:57.916Z,0.1
2023-03-30T18:34:57.862Z,0
2023-03-30T18:39:57.640Z,0
2023-03-30T18:44:58.066Z,0
2023-03-30T18:49:57.583Z,0
2023-03-30T18:54:57.538Z,0
2023-03-30T18:59:57.560Z,0
2023-03-30T19:04:57.842Z,0
2023-03-30T19:09:57.782Z,0
2023-03-30T19:14:57.806Z,0
2023-03-30T19:19:57.538Z,0
2023-03-30T19:24:57.711Z,0
2023-03-30T19:29:57.565Z,0
2023-03-30T19:34:57.986Z,0
2023-03-30T19:39:57.836Z,0
2023-03-30T19:44:57.965Z,0
2023-03-30T19:49:57.885Z,0
2023-03-30T19:54:57.648Z,0
2023-03-30T19:59:57.730Z,0
2023-03-30T20:04:57.504Z,0
2023-03-30T20:09:57.922Z,0
2023-03-30T20:14:57.451Z,0
2023-03-30T20:19:57.454Z,0
2023-03-30T20:24:57.627Z,0
2023-03-30T20:29:57.689Z,0
2023-03-30T20:34:57.658Z,0
2023-03-30T20:39:57.906Z,0
2023-03-30T20:44:57.779Z,0
2023-03-30T20:49:57.521Z,0
2023-03-30T20:54:57.659Z,0
2023-03-30T20:59:57.928Z,0
2023-03-30T21:04:57.785Z,0
2023-03-30T21:09:57.742Z,0
2023-03-30T21:14:57.580Z,0
2023-03-30T21:19:57.723Z,0
2023-03-30T21:24:57.435Z,0
2023-03-30T21:29:57.506Z,0
2023-03-30T21:34:57.845Z,0
2023-03-30T21:39:57.377Z,0
2023-03-30T21:44:57.574Z,0
2023-03-30T21:49:57.572Z,0
2023-03-30T21:54:57.370Z,0
2023-03-30T21:59:57.831Z,0
2023-03-30T22:04:57.671Z,0
2023-03-30T22:09:57.377Z,0
2023-03-30T22:14:57.588Z,0
2023-03-30T22:19:57.419Z,0
2023-03-30T22:24:57.303Z,0
2023-03-30T22:29:57.493Z,0
2023-03-30T22:34:57.689Z,0
2023-03-30T22:39:57.552Z,0
2023-03-30T22:44:57.419Z,0
2023-03-30T22:49:57.535Z,0
2023-03-30T22:54:57.440Z,0
2023-03-30T22:59:57.332Z,0
2023-03-30T23:04:57.503Z,0
2023-03-30T23:09:57.497Z,0
2023-03-30T23:14:57.366Z,0
2023-03-30T23:19:57.890Z,0
2023-03-30T23:24:57.311Z,0
2023-03-30T23:29:57.607Z,0
2023-03-30T23:34:57.679Z,0
2023-03-30T23:39:57.526Z,0
2023-03-30T23:44:57.270Z,0
2023-03-30T23:49:57.216Z,0
2023-03-30T23:54:57.356Z,0
2023-03-30T23:59:57.602Z,0
